Time;durP1;ratioP1;P1;durP2;ratioP2;P2;SDS_P1;SDS_P2;PMS_P1;PMS_P2;Temp;Humidity;BMP_temperature;BMP_pressure;BME280_temperature;BME280_humidity;BME280_pressure;Samples;Min_cycle;Max_cycle;Signal;HPM_P1;HPM_P2
2021/04/06 00:00:33;;;;;;;10.40;5.00;;;;;;;6.08;57.22;99512.42;126175;1099;104277;-79
2021/04/06 00:03:17;;;;;;;11.38;5.50;;;;;;;6.07;57.02;99510.64;126289;1096;104153;-80
2021/04/06 00:05:51;;;;;;;11.03;5.70;;;;;;;6.08;57.07;99512.42;126283;1099;104168;-80
2021/04/06 00:08:20;;;;;;;9.08;5.15;;;;;;;6.06;57.02;99506.28;126344;1096;101783;-80
2021/04/06 00:10:55;;;;;;;9.67;5.33;;;;;;;6.03;56.97;99502.64;126299;1096;104152;-81
2021/04/06 00:13:27;;;;;;;8.13;5.33;;;;;;;6.00;56.95;99503.44;126305;1099;104191;-80
2021/04/06 00:15:56;;;;;;;11.27;5.50;;;;;;;5.95;57.40;99497.11;126265;1097;104281;-80
2021/04/06 00:18:27;;;;;;;9.53;5.50;;;;;;;5.92;57.55;99497.00;126271;1099;104201;-80
2021/04/06 00:21:00;;;;;;;10.63;5.63;;;;;;;5.88;57.30;99498.61;126320;1099;104146;-80
2021/04/06 00:23:31;;;;;;;12.50;6.10;;;;;;;5.85;57.71;99495.88;126196;1099;104288;-79
2021/04/06 00:26:01;;;;;;;11.13;5.40;;;;;;;5.83;57.62;99496.64;126272;1099;104809;-80
2021/04/06 00:28:35;;;;;;;9.97;5.40;;;;;;;5.83;57.68;99497.55;126274;1099;104201;-79
2021/04/06 00:31:06;;;;;;;7.85;4.80;;;;;;;5.82;57.79;99490.56;126291;1099;104169;-79
2021/04/06 00:33:41;;;;;;;9.90;5.20;;;;;;;5.83;57.53;99504.45;126275;1099;104156;-79
2021/04/06 00:36:11;;;;;;;9.00;5.13;;;;;;;5.81;57.89;99500.91;126283;1099;104277;-79
2021/04/06 00:38:43;;;;;;;8.47;5.17;;;;;;;5.78;57.94;99496.50;126218;1099;104619;-79
2021/04/06 00:41:14;;;;;;;7.93;4.50;;;;;;;5.72;58.33;99491.93;126264;1099;104152;-80
2021/04/06 00:43:45;;;;;;;9.73;5.40;;;;;;;5.67;57.88;99497.77;126246;1099;105052;-80
2021/04/06 00:46:19;;;;;;;9.07;4.57;;;;;;;5.63;58.19;99485.48;126266;1099;104214;-79
2021/04/06 00:48:52;;;;;;;7.77;4.57;;;;;;;5.61;58.05;99490.63;126315;1099;104230;-80
2021/04/06 00:51:22;;;;;;;11.47;5.20;;;;;;;5.60;57.95;99487.97;126261;1099;104153;-80
2021/04/06 00:53:59;;;;;;;9.13;4.70;;;;;;;5.59;57.87;99474.05;126221;1099;104200;-80
2021/04/06 00:56:30;;;;;;;9.13;5.10;;;;;;;5.58;58.09;99470.56;126346;1099;104140;-80
2021/04/06 00:59:01;;;;;;;8.20;4.93;;;;;;;5.58;58.43;99469.69;126360;1099;104146;-80
2021/04/06 01:01:34;;;;;;;8.73;4.93;;;;;;;5.51;57.90;99470.27;126330;1099;104278;-80
2021/04/06 01:04:11;;;;;;;9.07;5.20;;;;;;;5.48;58.29;99472.74;126222;1099;104331;-81
2021/04/06 01:07:06;;;;;;;9.15;5.00;;;;;;;5.44;58.27;99473.44;126346;1099;104147;-79
2021/04/06 01:09:44;;;;;;;9.73;5.17;;;;;;;5.37;58.73;99467.98;126253;1098;104178;-80
2021/04/06 01:12:16;;;;;;;9.30;5.10;;;;;;;5.34;58.13;99465.27;126319;1099;104178;-80
2021/04/06 01:14:46;;;;;;;9.73;5.10;;;;;;;5.33;58.45;99466.12;126354;1096;104153;-80
2021/04/06 01:17:18;;;;;;;10.13;5.20;;;;;;;5.31;58.75;99467.75;126283;1096;104274;-79
2021/04/06 01:19:47;;;;;;;8.97;5.17;;;;;;;5.29;58.90;99464.20;126308;1096;104140;-79
2021/04/06 01:22:17;;;;;;;10.63;5.73;;;;;;;5.26;59.04;99464.08;126299;1096;104159;-79
2021/04/06 01:24:47;;;;;;;9.23;4.93;;;;;;;5.22;59.25;99462.20;126233;1099;104341;-80
2021/04/06 01:27:19;;;;;;;11.50;5.90;;;;;;;5.19;58.68;99464.68;126334;1099;104140;-79
2021/04/06 01:29:53;;;;;;;12.20;5.83;;;;;;;5.17;58.85;99459.41;126229;1099;104264;-79
2021/04/06 01:32:25;;;;;;;11.00;5.83;;;;;;;5.20;58.79;99459.54;126234;1099;104149;-79
2021/04/06 01:34:58;;;;;;;11.97;5.77;;;;;;;5.22;59.16;99463.08;126139;1099;104238;-78
2021/04/06 01:37:28;;;;;;;12.90;5.87;;;;;;;5.20;59.26;99454.34;126273;1096;104149;-80
2021/04/06 01:39:59;;;;;;;10.00;5.70;;;;;;;5.19;59.35;99454.28;126356;1096;104162;-79
2021/04/06 01:42:31;;;;;;;12.03;6.00;;;;;;;5.16;59.12;99446.34;126367;1096;104172;-79
2021/04/06 01:45:04;;;;;;;12.70;6.40;;;;;;;5.13;59.27;99457.50;126240;1099;104221;-79
2021/04/06 01:47:33;;;;;;;11.43;6.13;;;;;;;5.06;59.04;99444.19;126190;1099;104374;-79
2021/04/06 01:50:04;;;;;;;14.83;6.90;;;;;;;5.08;59.33;99447.73;126192;1099;104213;-79
2021/04/06 01:52:34;;;;;;;12.63;5.87;;;;;;;5.04;59.67;99447.60;126196;1099;104291;-79
2021/04/06 01:55:10;;;;;;;14.03;7.20;;;;;;;5.05;59.65;99448.52;126162;1099;105355;-79
2021/04/06 01:57:44;;;;;;;16.93;7.50;;;;;;;5.05;59.38;99456.31;126239;1099;104296;-79
2021/04/06 02:00:26;;;;;;;13.80;6.83;;;;;;;5.07;59.54;99461.58;126248;1099;104716;-78
2021/04/06 02:03:00;;;;;;;15.27;7.53;;;;;;;5.04;59.47;99458.00;126218;1099;104168;-79
2021/04/06 02:05:30;;;;;;;14.20;7.67;;;;;;;5.02;59.91;99459.66;126104;1099;104283;-79
2021/04/06 02:08:07;;;;;;;16.27;7.30;;;;;;;5.01;59.74;99462.20;126073;1099;104370;-79
2021/04/06 02:10:38;;;;;;;15.83;7.33;;;;;;;5.01;59.43;99467.41;126184;1099;104152;-80
2021/04/06 02:13:14;;;;;;;15.77;7.37;;;;;;;5.02;59.53;99461.39;126158;1099;104150;-79
2021/04/06 02:15:56;;;;;;;17.33;7.73;;;;;;;5.02;59.85;99459.66;126257;1099;104172;-80
2021/04/06 02:18:27;;;;;;;15.23;7.53;;;;;;;5.03;59.98;99458.85;126283;1099;104305;-80
2021/04/06 02:20:59;;;;;;;16.20;7.90;;;;;;;5.03;60.40;99453.65;126302;1096;104242;-80
2021/04/06 02:23:38;;;;;;;14.80;7.53;;;;;;;5.00;60.59;99457.81;126331;1096;104191;-80
2021/04/06 02:26:08;;;;;;;15.17;7.73;;;;;;;4.98;59.87;99452.55;126320;1099;112849;-80
2021/04/06 02:28:37;;;;;;;15.67;7.60;;;;;;;4.96;60.39;99445.53;126266;1099;104252;-79
2021/04/06 02:31:07;;;;;;;16.93;7.57;;;;;;;4.94;59.95;99449.76;126295;1099;104271;-80
2021/04/06 02:33:38;;;;;;;17.70;7.83;;;;;;;4.93;59.90;99451.48;126270;1099;104291;-79
2021/04/06 02:36:09;;;;;;;14.60;7.33;;;;;;;4.96;60.06;99442.94;126348;1096;104159;-80
2021/04/06 02:38:41;;;;;;;16.23;7.20;;;;;;;4.99;59.85;99451.73;126173;1099;104208;-80
2021/04/06 02:41:12;;;;;;;19.47;8.97;;;;;;;5.00;60.31;99448.33;126331;1096;104142;-80
2021/04/06 02:43:43;;;;;;;17.07;8.40;;;;;;;5.00;60.29;99443.13;126352;1096;104303;-80
2021/04/06 02:46:15;;;;;;;18.80;8.50;;;;;;;4.98;60.35;99446.47;126246;1096;104140;-80
2021/04/06 02:48:44;;;;;;;16.77;8.23;;;;;;;4.95;60.32;99434.23;126356;1098;104316;-80
2021/04/06 02:51:14;;;;;;;18.33;8.53;;;;;;;4.93;60.61;99441.08;126341;1099;104270;-80
2021/04/06 02:53:46;;;;;;;18.87;9.13;;;;;;;4.91;60.54;99444.44;126155;1098;104252;-79
2021/04/06 02:56:31;;;;;;;20.03;10.10;;;;;;;4.89;60.60;99446.09;126179;1096;104178;-80
2021/04/06 02:59:12;;;;;;;;;;;;;;;4.86;61.58;99447.75;126190;1096;104140;-79
2021/04/06 03:01:42;;;;;;;18.57;8.37;;;;;;;4.83;60.71;99446.72;126220;1096;104140;-79
2021/04/06 03:04:22;;;;;;;17.53;8.63;;;;;;;4.77;61.48;99452.56;126195;1099;104191;-79
2021/04/06 03:06:53;;;;;;;19.47;8.27;;;;;;;4.70;61.28;99445.32;126157;1099;104201;-79
2021/04/06 03:09:25;;;;;;;21.00;9.73;;;;;;;4.64;61.22;99453.77;126224;1099;104284;-79
2021/04/06 03:11:55;;;;;;;19.80;9.40;;;;;;;4.56;61.21;99455.13;126276;1099;104252;-79
2021/04/06 03:14:26;;;;;;;19.97;9.23;;;;;;;4.52;61.21;99452.33;126322;1098;105017;-80
2021/04/06 03:16:55;;;;;;;23.00;10.63;;;;;;;4.51;61.51;99454.05;126351;1099;104634;-79
2021/04/06 03:19:31;;;;;;;20.67;10.57;;;;;;;4.52;61.67;99455.84;126265;1097;104195;-79
2021/04/06 03:22:00;;;;;;;20.67;10.37;;;;;;;4.53;61.39;99452.39;126337;1099;104139;-80
2021/04/06 03:24:30;;;;;;;22.67;10.90;;;;;;;4.56;61.46;99451.65;126193;1099;104198;-80
2021/04/06 03:27:01;;;;;;;20.87;10.37;;;;;;;4.56;61.19;99455.13;126366;1099;104216;-80
2021/04/06 03:29:31;;;;;;;23.03;11.10;;;;;;;4.56;61.76;99452.53;126248;1098;104274;-79
2021/04/06 03:32:01;;;;;;;23.03;11.57;;;;;;;4.54;61.10;99461.10;126319;1099;104117;-80
2021/04/06 03:34:37;;;;;;;21.03;9.60;;;;;;;4.53;61.76;99457.59;126306;1099;104313;-80
2021/04/06 03:37:07;;;;;;;18.63;9.33;;;;;;;4.56;61.82;99455.13;126253;1099;104152;-80
2021/04/06 03:39:37;;;;;;;21.07;10.67;;;;;;;4.57;61.91;99453.44;126321;1099;104143;-80
2021/04/06 03:42:06;;;;;;;20.93;10.57;;;;;;;4.58;61.40;99442.20;126337;1099;104171;-80
2021/04/06 03:44:35;;;;;;;20.43;9.37;;;;;;;4.57;62.01;99440.45;126186;1099;104152;-80
2021/04/06 03:47:05;;;;;;;22.57;10.47;;;;;;;4.51;61.74;99446.26;126125;1099;104172;-80
2021/04/06 03:49:34;;;;;;;21.43;11.07;;;;;;;4.49;61.87;99438.40;126138;1099;104191;-80
2021/04/06 03:52:06;;;;;;;20.43;11.00;;;;;;;4.50;61.93;99434.08;126076;1099;104206;-80
2021/04/06 03:54:42;;;;;;;19.60;10.00;;;;;;;4.48;61.88;99427.94;125275;1099;102790;-80
2021/04/06 03:57:29;;;;;;;23.27;10.57;;;;;;;4.51;61.72;99433.27;126033;1099;104335;-80
2021/04/06 03:59:57;;;;;;;21.53;10.27;;;;;;;4.58;62.42;99435.31;125951;1099;104338;-80
2021/04/06 04:02:26;;;;;;;20.67;9.90;;;;;;;4.64;61.90;99437.27;125999;1099;104322;-80
2021/04/06 04:04:57;;;;;;;21.23;11.43;;;;;;;4.72;62.14;99447.98;125406;1099;104185;-80
2021/04/06 04:07:26;;;;;;;22.27;11.40;;;;;;;4.79;61.99;99455.23;125567;1099;104236;-81
2021/04/06 04:09:55;;;;;;;24.10;11.17;;;;;;;4.82;61.84;99450.16;126138;1099;102168;-80
2021/04/06 04:12:24;;;;;;;28.67;10.83;;;;;;;4.86;61.90;99457.23;126138;1099;104287;-79
2021/04/06 04:14:55;;;;;;;21.87;11.07;;;;;;;4.86;61.89;99450.35;126153;1099;104281;-79
2021/04/06 04:17:25;;;;;;;22.00;11.93;;;;;;;4.89;62.11;99454.77;126205;1099;104265;-79
2021/04/06 04:19:55;;;;;;;20.80;11.17;;;;;;;4.93;62.27;99456.69;126289;1099;104683;-79
2021/04/06 04:22:24;;;;;;;21.07;10.37;;;;;;;5.00;62.21;99450.02;126055;1099;104198;-79
2021/04/06 04:24:53;;;;;;;22.70;10.80;;;;;;;5.05;62.07;99448.52;126079;1099;104277;-80
2021/04/06 04:27:22;;;;;;;21.90;10.67;;;;;;;5.13;62.22;99441.02;126077;1099;104146;-80
2021/04/06 04:29:54;;;;;;;22.03;10.97;;;;;;;5.22;62.24;99442.27;126263;1099;104269;-79
2021/04/06 04:32:23;;;;;;;21.37;11.17;;;;;;;5.29;62.04;99448.59;126178;1099;104165;-79
2021/04/06 04:34:51;;;;;;;19.83;10.17;;;;;;;5.35;62.07;99448.84;126242;1099;104274;-79
2021/04/06 04:37:20;;;;;;;29.17;10.40;;;;;;;5.38;62.12;99448.97;126175;1099;104220;-79
2021/04/06 04:39:49;;;;;;;22.37;9.93;;;;;;;5.44;62.28;99439.62;126077;1099;104226;-79
2021/04/06 04:42:18;;;;;;;21.57;10.07;;;;;;;5.44;62.14;99442.22;126101;1099;104142;-80
2021/04/06 04:44:47;;;;;;;20.90;8.73;;;;;;;5.47;62.22;99435.44;126090;1099;104147;-80
2021/04/06 04:47:16;;;;;;;19.33;9.17;;;;;;;5.54;62.36;99436.55;126179;1098;104197;-79
2021/04/06 04:49:44;;;;;;;20.27;9.33;;;;;;;5.59;62.02;99432.41;126251;1099;104149;-80
2021/04/06 04:52:13;;;;;;;21.00;9.13;;;;;;;5.67;62.34;99440.51;126013;1099;104210;-80
2021/04/06 04:54:42;;;;;;;20.90;8.67;;;;;;;5.78;62.47;99443.52;126064;1099;104150;-79
2021/04/06 04:57:11;;;;;;;15.83;7.83;;;;;;;5.89;62.41;99436.99;125938;1099;104207;-79
2021/04/06 04:59:40;;;;;;;14.70;7.60;;;;;;;5.99;62.15;99440.88;125923;1099;104165;-80
2021/04/06 05:02:09;;;;;;;18.03;8.23;;;;;;;6.05;62.07;99431.57;125904;1099;104268;-80
2021/04/06 05:04:41;;;;;;;20.10;8.93;;;;;;;6.18;62.25;99442.44;125814;1099;104310;-79
2021/04/06 05:07:10;;;;;;;18.47;8.70;;;;;;;6.25;62.35;99442.72;125924;1098;102705;-79
2021/04/06 05:09:39;;;;;;;17.37;8.60;;;;;;;6.27;62.21;99434.95;125908;1099;104172;-78
2021/04/06 05:12:08;;;;;;;19.03;9.10;;;;;;;6.29;62.20;99435.89;126058;1099;104160;-79
2021/04/06 05:14:38;;;;;;;19.80;8.80;;;;;;;6.36;62.49;99448.31;126077;1098;104282;-79
2021/04/06 05:17:08;;;;;;;18.00;8.13;;;;;;;6.36;61.96;99429.16;126066;1099;104653;-79
2021/04/06 05:19:40;;;;;;;20.83;8.90;;;;;;;6.53;62.59;99434.97;125909;1099;104178;-79
2021/04/06 05:22:10;;;;;;;16.27;7.97;;;;;;;6.59;62.38;99437.79;125919;1099;104257;-79
2021/04/06 05:24:39;;;;;;;20.33;9.43;;;;;;;6.64;62.30;99431.03;125953;1096;104226;-79
2021/04/06 05:27:08;;;;;;;18.60;9.07;;;;;;;6.70;62.42;99432.95;125863;1096;104162;-81
2021/04/06 05:29:37;;;;;;;17.63;8.40;;;;;;;6.77;62.33;99427.99;125876;1099;104200;-81
2021/04/06 05:32:07;;;;;;;19.40;9.23;;;;;;;6.82;62.18;99426.45;125972;1098;104219;-80
2021/04/06 05:34:36;;;;;;;20.13;9.03;;;;;;;6.86;62.59;99421.30;126080;1099;104208;-78
2021/04/06 05:37:05;;;;;;;18.50;8.50;;;;;;;6.92;62.37;99417.20;125954;1099;104290;-80
2021/04/06 05:39:34;;;;;;;16.90;8.43;;;;;;;7.00;62.61;99414.84;125896;1099;104166;-80
2021/04/06 05:42:02;;;;;;;18.03;8.90;;;;;;;7.04;62.63;99421.91;125739;1099;104389;-82
2021/04/06 05:44:32;;;;;;;20.40;9.63;;;;;;;7.10;62.58;99416.89;125862;1099;104242;-82
2021/04/06 05:47:04;;;;;;;17.97;8.70;;;;;;;7.18;62.57;99414.53;125689;1099;104370;-80
2021/04/06 05:49:34;;;;;;;24.93;10.00;;;;;;;7.22;62.72;99410.32;125428;1099;104187;-78
2021/04/06 05:52:05;;;;;;;20.80;9.27;;;;;;;7.30;62.35;99406.22;125200;1099;104739;-79
2021/04/06 05:54:38;;;;;;;18.67;8.70;;;;;;;7.41;62.32;99410.03;125797;1099;104252;-78
2021/04/06 05:57:08;;;;;;;18.70;8.40;;;;;;;7.54;62.80;99414.80;125098;1099;104184;-79
2021/04/06 05:59:37;;;;;;;19.73;9.27;;;;;;;7.60;62.45;99421.05;125653;1099;104798;-78
2021/04/06 06:02:11;;;;;;;18.70;9.30;;;;;;;7.66;61.96;99408.17;125024;1099;104332;-79
2021/04/06 06:04:41;;;;;;;17.07;8.80;;;;;;;7.76;62.41;99411.94;125744;1102;104181;-79
2021/04/06 06:07:12;;;;;;;20.47;8.90;;;;;;;7.88;62.08;99407.08;124920;1102;105629;-79
2021/04/06 06:09:42;;;;;;;17.90;8.97;;;;;;;7.97;62.26;99402.11;125311;1102;104306;-79
2021/04/06 06:12:13;;;;;;;19.17;8.87;;;;;;;8.08;62.11;99402.42;124988;1099;104299;-78
2021/04/06 06:14:45;;;;;;;20.27;9.03;;;;;;;8.17;61.74;99391.35;125263;1099;104215;-79
2021/04/06 06:17:19;;;;;;;19.60;9.37;;;;;;;8.26;62.30;99400.31;125040;1099;104197;-79
2021/04/06 06:19:50;;;;;;;;;;;;;;;8.37;61.47;99407.58;124990;1099;104370;-78
2021/04/06 06:22:21;;;;;;;16.93;8.20;;;;;;;8.48;61.63;99408.77;124950;1099;104294;-79
2021/04/06 06:25:04;;;;;;;16.42;7.80;;;;;;;8.59;62.09;99402.09;124958;1099;104236;-80
2021/04/06 06:27:37;;;;;;;14.87;7.10;;;;;;;8.69;62.01;99403.20;124958;1102;104339;-79
2021/04/06 06:30:19;;;;;;;17.33;8.80;;;;;;;8.81;61.62;99402.64;125076;1102;104354;-79
2021/04/06 06:32:48;;;;;;;15.73;7.43;;;;;;;8.90;61.17;99402.88;125205;1102;104175;-79
2021/04/06 06:35:35;;;;;;;16.60;8.03;;;;;;;9.00;61.22;99398.73;125672;1099;104281;-78
2021/04/06 06:38:16;;;;;;;17.17;8.10;;;;;;;9.15;61.61;99395.62;125831;1099;104169;-78
2021/04/06 06:40:47;;;;;;;14.33;6.70;;;;;;;9.27;60.51;99387.16;125891;1096;104165;-79
2021/04/06 06:43:19;;;;;;;16.60;8.10;;;;;;;9.35;61.05;99386.49;126035;1096;104364;-80
2021/04/06 06:45:53;;;;;;;16.43;8.00;;;;;;;9.48;61.22;99382.41;125986;1099;104156;-79
2021/04/06 06:48:32;;;;;;;17.93;7.20;;;;;;;9.63;61.31;99379.25;126098;1096;104143;-79
2021/04/06 06:51:07;;;;;;;17.43;7.40;;;;;;;9.77;61.15;99387.41;125893;1099;104155;-79
2021/04/06 06:53:39;;;;;;;19.47;7.63;;;;;;;9.89;60.96;99389.38;126098;1099;104175;-80
2021/04/06 06:56:11;;;;;;;16.83;7.83;;;;;;;9.97;60.81;99385.20;126029;1099;104143;-80
2021/04/06 06:58:42;;;;;;;15.73;7.90;;;;;;;10.04;60.91;99376.58;126080;1099;104258;-79
2021/04/06 07:01:24;;;;;;;16.83;7.83;;;;;;;10.11;60.19;99374.08;126053;1096;104181;-81
2021/04/06 07:04:07;;;;;;;14.50;7.17;;;;;;;10.23;60.49;99375.20;126070;1099;104140;-80
2021/04/06 07:06:40;;;;;;;20.10;7.70;;;;;;;10.38;60.52;99374.65;125941;1099;104206;-80
2021/04/06 07:09:24;;;;;;;13.90;6.87;;;;;;;10.54;60.32;99367.05;125937;1099;104241;-81
2021/04/06 07:11:58;;;;;;;18.43;7.67;;;;;;;10.66;60.31;99375.14;125731;1099;108215;-77
2021/04/06 07:14:29;;;;;;;17.20;7.65;;;;;;;10.86;60.14;99378.11;125995;1098;104153;-80
2021/04/06 07:17:01;;;;;;;18.83;7.50;;;;;;;11.00;59.84;99372.18;125871;1099;104175;-80
2021/04/06 07:19:33;;;;;;;13.00;6.53;;;;;;;11.12;59.49;99370.63;125881;1099;104134;-79
2021/04/06 07:22:04;;;;;;;12.90;6.17;;;;;;;11.27;59.61;99369.11;125839;1099;104232;-79
2021/04/06 07:24:36;;;;;;;13.13;6.70;;;;;;;11.45;58.68;99358.88;125864;1099;104174;-76
2021/04/06 07:27:08;;;;;;;14.07;7.20;;;;;;;11.59;58.94;99355.53;125869;1099;104141;-78
2021/04/06 07:29:39;;;;;;;13.83;7.10;;;;;;;11.72;58.60;99364.44;125840;1099;104172;-79
2021/04/06 07:32:13;;;;;;;16.27;7.43;;;;;;;11.85;58.48;99358.49;125892;1099;104306;-77
2021/04/06 07:34:48;;;;;;;15.20;6.90;;;;;;;11.98;59.00;99357.82;125782;1099;104220;-78
2021/04/06 07:37:18;;;;;;;14.73;6.93;;;;;;;12.12;58.70;99347.43;125154;1099;104722;-78
2021/04/06 07:39:49;;;;;;;13.37;7.17;;;;;;;12.28;58.52;99351.13;125151;1102;104197;-78
2021/04/06 07:42:19;;;;;;;15.83;7.00;;;;;;;12.46;58.43;99347.78;125195;1099;104187;-80
2021/04/06 07:44:49;;;;;;;12.97;6.40;;;;;;;12.62;58.54;99340.03;125306;1099;104145;-80
2021/04/06 07:47:37;;;;;;;12.23;6.73;;;;;;;12.76;57.34;99341.02;125234;1099;104136;-78
2021/04/06 07:50:13;;;;;;;12.37;6.53;;;;;;;12.83;56.10;99339.34;125734;1099;104281;-79
2021/04/06 07:52:45;;;;;;;13.20;6.50;;;;;;;12.94;57.11;99345.56;124989;1102;104165;-79
2021/04/06 07:55:15;;;;;;;16.23;7.27;;;;;;;13.06;56.82;99339.52;124934;1102;104319;-79
2021/04/06 07:57:48;;;;;;;14.53;6.10;;;;;;;13.11;56.00;99343.06;124971;1102;104644;-80
2021/04/06 08:00:53;;;;;;;16.77;7.87;;;;;;;13.21;55.98;99338.73;125015;1102;104428;-81
2021/04/06 08:03:47;;;;;;;15.33;6.67;;;;;;;13.27;54.57;99334.37;125721;1099;108996;-77
2021/04/06 08:06:20;;;;;;;14.93;6.53;;;;;;;13.35;54.98;99333.58;125205;1099;104290;-79
2021/04/06 08:08:51;;;;;;;13.63;6.33;;;;;;;13.38;54.18;99320.42;125640;1099;104210;-76
2021/04/06 08:11:21;;;;;;;13.47;6.10;;;;;;;13.44;55.24;99323.09;125726;1099;104297;-77
2021/04/06 08:13:50;;;;;;;12.47;6.40;;;;;;;13.52;54.70;99317.86;125640;1099;117806;-78
2021/04/06 08:16:21;;;;;;;12.73;6.40;;;;;;;13.58;54.81;99307.34;125603;1099;104336;-77
2021/04/06 08:18:52;;;;;;;12.23;6.13;;;;;;;13.66;52.94;99311.79;125242;1102;104165;-78
2021/04/06 08:21:26;;;;;;;12.65;6.00;;;;;;;13.76;53.49;99311.80;125803;1099;104181;-80
2021/04/06 08:23:55;;;;;;;16.17;6.70;;;;;;;13.85;51.69;99311.83;125783;1099;106918;-80
2021/04/06 08:26:32;;;;;;;10.90;5.73;;;;;;;13.87;52.33;99312.73;125989;1099;105076;-79
2021/04/06 08:29:29;;;;;;;12.77;5.90;;;;;;;13.96;52.77;99304.86;125900;1099;104217;-79
2021/04/06 08:32:13;;;;;;;11.23;6.03;;;;;;;14.16;53.78;99309.28;125813;1099;104153;-79
2021/04/06 08:34:53;;;;;;;12.15;6.17;;;;;;;14.26;52.54;99296.98;125921;1099;104149;-78
2021/04/06 08:37:36;;;;;;;12.90;6.73;;;;;;;14.38;52.04;99276.78;125868;1099;104159;-79
2021/04/06 08:40:08;;;;;;;13.80;6.30;;;;;;;14.42;51.96;99301.41;125820;1099;104362;-78
2021/04/06 08:42:39;;;;;;;11.43;6.20;;;;;;;14.33;51.25;99283.80;125890;1099;105578;-77
2021/04/06 08:45:11;;;;;;;13.97;6.87;;;;;;;14.29;51.40;99289.97;125745;1099;104248;-80
2021/04/06 08:47:44;;;;;;;12.20;6.47;;;;;;;14.35;51.22;99291.72;125849;1099;104616;-80
2021/04/06 08:50:32;;;;;;;11.88;5.87;;;;;;;14.37;52.07;99298.77;126042;1098;104153;-79
2021/04/06 08:53:02;;;;;;;10.57;5.37;;;;;;;14.43;51.83;99294.36;125892;1099;104247;-79
2021/04/06 08:55:32;;;;;;;14.47;6.73;;;;;;;14.34;52.26;99288.20;125805;1099;104325;-80
2021/04/06 08:58:03;;;;;;;10.17;5.60;;;;;;;14.33;51.39;99281.16;125907;1099;104191;-78
2021/04/06 09:00:33;;;;;;;11.67;6.40;;;;;;;14.45;50.88;99280.30;125924;1099;104277;-79
2021/04/06 09:03:09;;;;;;;10.90;5.67;;;;;;;14.66;51.55;99275.92;125739;1099;104225;-79
2021/04/06 09:05:39;;;;;;;11.70;6.10;;;;;;;14.77;52.11;99278.56;125755;1099;104165;-79
2021/04/06 09:08:25;;;;;;;10.77;5.67;;;;;;;14.96;51.54;99280.31;125611;1099;104278;-80
2021/04/06 09:11:04;;;;;;;10.77;5.87;;;;;;;15.09;50.57;99274.10;125716;1099;102528;-80
2021/04/06 09:13:34;;;;;;;12.30;5.87;;;;;;;15.13;50.68;99277.64;125768;1099;104177;-80
2021/04/06 09:16:03;;;;;;;9.47;5.53;;;;;;;15.14;50.73;99275.87;125733;1099;104264;-80
2021/04/06 09:18:42;;;;;;;12.30;6.27;;;;;;;15.23;50.92;99279.35;125720;1099;105144;-78
2021/04/06 09:21:14;;;;;;;14.50;6.50;;;;;;;15.42;50.92;99269.59;125798;1099;104281;-79
2021/04/06 09:23:46;;;;;;;12.60;5.83;;;;;;;15.62;50.85;99268.65;125850;1099;104124;-79
2021/04/06 09:26:18;;;;;;;15.37;6.10;;;;;;;15.66;49.97;99267.76;125849;1099;104210;-79
2021/04/06 09:28:48;;;;;;;11.13;5.83;;;;;;;15.74;49.62;99250.08;125842;1099;104166;-79
2021/04/06 09:31:17;;;;;;;11.43;5.77;;;;;;;15.92;48.72;99249.11;125859;1098;104155;-79
2021/04/06 09:33:47;;;;;;;11.33;5.87;;;;;;;16.08;49.42;99243.73;125837;1098;104265;-78
2021/04/06 09:36:25;;;;;;;8.63;5.33;;;;;;;16.21;46.55;99249.83;125816;1099;104216;-78
2021/04/06 09:38:58;;;;;;;10.67;5.97;;;;;;;16.09;48.71;99251.66;125858;1099;104174;-79
2021/04/06 09:41:43;;;;;;;9.03;5.30;;;;;;;15.94;46.91;99246.45;125851;1099;104284;-78
2021/04/06 09:44:16;;;;;;;10.90;5.10;;;;;;;15.62;46.13;99231.63;125837;1098;104254;-78
2021/04/06 09:46:51;;;;;;;11.13;5.40;;;;;;;15.50;47.06;99239.62;125685;1099;104192;-78
2021/04/06 09:49:31;;;;;;;9.40;5.60;;;;;;;15.44;46.80;99241.41;125735;1099;104312;-80
2021/04/06 09:52:02;;;;;;;9.90;5.60;;;;;;;15.49;47.49;99236.11;125699;1099;104287;-77
2021/04/06 09:54:38;;;;;;;11.70;5.70;;;;;;;15.66;47.83;99243.06;125850;1099;104213;-77
2021/04/06 09:57:10;;;;;;;11.03;5.90;;;;;;;15.67;46.85;99243.05;125751;1099;104158;-78
2021/04/06 09:59:43;;;;;;;10.50;5.67;;;;;;;15.58;47.52;99245.74;125678;1099;104331;-78
2021/04/06 10:02:17;;;;;;;9.13;5.73;;;;;;;15.49;47.19;99224.63;125760;1099;104319;-79
2021/04/06 10:04:48;;;;;;;12.07;5.47;;;;;;;15.42;46.39;99237.00;125657;1099;105200;-79
2021/04/06 10:07:20;;;;;;;10.57;5.83;;;;;;;15.36;47.17;99231.74;125707;1099;104201;-78
2021/04/06 10:09:51;;;;;;;10.73;5.10;;;;;;;15.38;46.34;99214.11;125711;1099;104264;-79
2021/04/06 10:12:22;;;;;;;10.07;5.80;;;;;;;15.46;46.54;99214.97;125681;1099;104344;-79
2021/04/06 10:14:52;;;;;;;9.23;5.27;;;;;;;15.63;46.24;99210.47;125757;1098;104933;-79
2021/04/06 10:17:24;;;;;;;10.63;5.83;;;;;;;15.69;45.75;99203.38;125654;1099;104143;-79
2021/04/06 10:20:07;;;;;;;10.80;5.37;;;;;;;15.83;45.67;99206.84;125807;1099;104284;-78
2021/04/06 10:22:41;;;;;;;8.87;5.07;;;;;;;15.94;45.40;99196.20;125749;1099;104165;-79
2021/04/06 10:25:13;;;;;;;8.73;5.43;;;;;;;15.77;44.17;99194.56;125739;1099;104169;-81
2021/04/06 10:27:51;;;;;;;9.77;5.60;;;;;;;15.61;44.72;99198.13;125705;1099;105615;-79
2021/04/06 10:30:31;;;;;;;9.90;5.13;;;;;;;15.59;44.94;99202.56;125872;1099;104178;-81
2021/04/06 10:33:07;;;;;;;8.17;5.10;;;;;;;15.74;44.97;99191.90;125802;1099;104159;-79
2021/04/06 10:38:41;;;;;;;8.53;4.30;;;;;;;15.89;43.24;99168.91;125661;1099;104133;-79
2021/04/06 10:41:12;;;;;;;9.33;4.87;;;;;;;15.94;44.99;99180.32;125735;1098;104281;-76
2021/04/06 10:43:47;;;;;;;13.20;5.17;;;;;;;16.00;45.32;99167.05;125886;1099;104129;-76
2021/04/06 10:46:19;;;;;;;8.73;4.73;;;;;;;16.11;43.06;99159.93;125847;1099;104152;-76
2021/04/06 10:48:52;;;;;;;7.25;4.80;;;;;;;16.17;43.00;99170.47;125890;1099;104226;-78
2021/04/06 10:51:23;;;;;;;9.50;4.70;;;;;;;16.11;41.20;99159.93;125713;1099;104184;-79
2021/04/06 10:53:55;;;;;;;7.25;4.60;;;;;;;16.00;42.87;99159.11;125602;1098;104193;-77
2021/04/06 10:56:30;;;;;;;8.07;4.13;;;;;;;16.00;43.47;99159.11;127093;1099;104194;-79
2021/04/06 10:59:03;;;;;;;6.93;4.60;;;;;;;16.09;44.24;99156.39;125765;1099;102817;-79
2021/04/06 11:01:47;;;;;;;7.70;4.73;;;;;;;16.24;43.60;99165.12;125777;1098;104166;-79
2021/04/06 11:04:21;;;;;;;10.07;4.60;;;;;;;16.48;43.35;99164.86;125748;1099;104258;-80
2021/04/06 11:06:57;;;;;;;8.23;4.40;;;;;;;16.66;43.44;99157.66;125650;1099;104297;-80
2021/04/06 11:09:33;;;;;;;6.95;4.30;;;;;;;16.76;43.77;99153.99;125614;1099;104156;-79
2021/04/06 11:12:05;;;;;;;8.47;4.30;;;;;;;16.82;43.32;99153.92;125742;1099;104271;-80
2021/04/06 11:14:37;;;;;;;7.50;4.00;;;;;;;16.86;42.17;99157.44;125921;1099;103186;-80
2021/04/06 11:17:08;;;;;;;6.03;3.63;;;;;;;16.85;42.43;99159.19;125776;1096;104130;-80
2021/04/06 11:19:43;;;;;;;7.80;3.93;;;;;;;16.91;42.66;99144.14;125751;1096;104137;-79
2021/04/06 11:22:21;;;;;;;6.00;3.70;;;;;;;16.95;43.18;99140.58;125793;1099;104169;-80
2021/04/06 11:24:53;;;;;;;6.93;4.10;;;;;;;16.98;41.59;99132.59;125882;1096;104141;-79
2021/04/06 11:27:30;;;;;;;7.30;4.10;;;;;;;16.98;41.43;99137.89;125826;1096;104207;-79
2021/04/06 11:30:01;;;;;;;6.53;3.97;;;;;;;16.92;41.63;99140.61;125918;1099;105199;-79
2021/04/06 11:32:30;;;;;;;7.03;4.17;;;;;;;16.79;41.20;99146.02;126072;1099;104259;-78
2021/04/06 11:35:03;;;;;;;7.93;4.30;;;;;;;16.60;41.65;99141.83;125985;1099;104160;-79
2021/04/06 11:37:31;;;;;;;11.60;4.80;;;;;;;16.50;41.64;99131.33;126022;1096;104156;-78
2021/04/06 11:40:01;;;;;;;6.57;4.30;;;;;;;16.45;41.60;99132.26;126037;1096;104340;-78
2021/04/06 11:42:32;;;;;;;7.13;4.00;;;;;;;16.41;41.34;99126.13;125997;1099;104133;-78